International Virtual Aviation Organisation

Russian Federation and Kazakhstan MCD

 

Карточка аэропорта UMKK

Внимание!
Информация на этой странице в стадии наполнения.
Если вы не увидели какой-то информации, или заметили неточность - пожалуйста сообщите нам!
Спасибо!
Команда RU-STAFF
Название аэропортаХраброво
Название аэропорта (англ.)Khrabrovo
Превышение43 ft. (13.1 m.)
Координаты54°53.4', 20°35.55'
Высота перехода1000m
Эшелон переходаQFE>=742mm:FL050; QFE<742:FL060
Коды ответчика6620-6637
Зона ОрВДКалининград РПИ (UMKK)
Данные METARUMKK 242300Z 24004MPS 9999 FEW020 01/00 Q1014 R24/60D NOSIG RMK QFE759/1013
Проноз погоды (TAF)UMKK 241959Z 2421/2521 24003G08MPS 9999 BKN011 TEMPO 2421/2506 22005MPS 3100 BR FEW005 BECMG 2506/2508 27005G10MPS TEMPO 2506/2521 3100 -SHRA BKN012CB BECMG 2512/2514 32006G11MPS
NOTAMshow/hide NOTAM
AWOS   TABLE

Информация о ВПП

ВПП Длина ВПП (м.) Покрытие Курс ВПП Частота ILS
062500Асфальтобетон61 
242500Асфальтобетон241109.5

Диспетчерские позиции

Позывной Наименование органа УВД Частота
UMKK_APPКалининград-Подход126.0
UMKK_TWRКалининград-Вышка127.2



Спутниковое изображение